createdAt,value
2019-01-27T00:02:12.915Z,4.77
2019-01-27T00:04:41.349Z,4.74
2019-01-27T00:07:10.206Z,4.83
2019-01-27T00:09:38.622Z,4.83
2019-01-27T00:12:07.109Z,4.77
2019-01-27T00:14:35.544Z,4.78
2019-01-27T00:17:04.485Z,4.77
2019-01-27T00:19:32.937Z,4.74
2019-01-27T00:22:01.505Z,4.73
2019-01-27T00:24:29.998Z,4.76
2019-01-27T00:26:58.466Z,4.77
2019-01-27T00:29:26.947Z,4.82
2019-01-27T00:31:58.297Z,4.78
2019-01-27T00:34:26.773Z,4.76
2019-01-27T00:36:55.252Z,4.64
2019-01-27T00:39:23.655Z,4.61
2019-01-27T00:41:52.062Z,4.56
2019-01-27T00:44:20.532Z,4.55
2019-01-27T00:46:48.964Z,4.63
2019-01-27T00:49:17.384Z,4.63
2019-01-27T00:51:45.889Z,4.56
2019-01-27T00:54:14.311Z,4.69
2019-01-27T00:56:42.717Z,4.67
2019-01-27T00:59:11.173Z,4.71
2019-01-27T01:01:39.645Z,4.69
2019-01-27T01:04:08.183Z,4.72
2019-01-27T01:06:36.862Z,4.65
2019-01-27T01:09:08.335Z,4.64
2019-01-27T01:11:36.928Z,4.60
2019-01-27T01:14:05.600Z,4.64
2019-01-27T01:16:34.143Z,4.64
2019-01-27T01:19:02.564Z,4.67
2019-01-27T01:21:30.983Z,4.67
2019-01-27T01:23:59.453Z,4.67
2019-01-27T01:26:27.916Z,4.73
2019-01-27T01:28:56.349Z,4.78
2019-01-27T01:31:25.409Z,4.80
2019-01-27T01:33:53.838Z,4.74
2019-01-27T01:36:22.346Z,4.72
2019-01-27T01:38:50.790Z,4.77
2019-01-27T01:41:19.222Z,4.82
2019-01-27T01:43:47.629Z,4.80
2019-01-27T01:46:16.125Z,4.79
2019-01-27T01:48:44.591Z,4.77
2019-01-27T01:51:13.069Z,4.80
2019-01-27T01:53:41.568Z,4.91
2019-01-27T01:56:09.986Z,4.85
2019-01-27T01:58:38.426Z,4.84
2019-01-27T02:01:06.968Z,4.88
2019-01-27T02:03:35.435Z,4.90
2019-01-27T02:06:04.627Z,4.86
2019-01-27T02:08:33.039Z,4.84
2019-01-27T02:11:01.803Z,4.87
2019-01-27T02:13:30.241Z,4.87
2019-01-27T02:16:03.457Z,4.90
2019-01-27T02:18:32.529Z,4.94
2019-01-27T02:21:01.314Z,4.90
2019-01-27T02:23:29.713Z,4.90
2019-01-27T02:25:58.181Z,4.99
2019-01-27T02:28:26.691Z,5.00
2019-01-27T02:30:55.146Z,4.93
2019-01-27T02:33:23.656Z,4.91
2019-01-27T02:35:52.147Z,4.91
2019-01-27T02:38:20.569Z,4.96
2019-01-27T02:40:49.017Z,4.95
2019-01-27T02:43:17.497Z,4.96
2019-01-27T02:45:45.914Z,4.95
2019-01-27T02:48:14.407Z,4.98
2019-01-27T02:50:44.371Z,4.90
2019-01-27T02:53:12.798Z,4.89
2019-01-27T02:55:41.207Z,4.87
2019-01-27T02:58:09.714Z,4.82
2019-01-27T03:00:38.635Z,4.80
2019-01-27T03:03:07.116Z,4.80
2019-01-27T03:05:52.416Z,4.76
2019-01-27T03:08:20.960Z,4.73
2019-01-27T03:10:49.511Z,4.68
2019-01-27T03:13:17.948Z,4.70
2019-01-27T03:15:46.359Z,4.70
2019-01-27T03:18:14.868Z,4.66
2019-01-27T03:20:43.342Z,4.65
2019-01-27T03:23:11.746Z,4.65
2019-01-27T03:25:40.208Z,4.69
2019-01-27T03:28:08.658Z,4.72
2019-01-27T03:30:37.165Z,4.78
2019-01-27T03:33:05.665Z,4.78
2019-01-27T03:35:34.087Z,4.81
2019-01-27T03:38:02.582Z,4.82
2019-01-27T03:40:31.208Z,4.85
2019-01-27T03:42:59.641Z,4.88
2019-01-27T03:45:28.068Z,4.87
2019-01-27T03:47:56.495Z,4.88
2019-01-27T03:50:24.924Z,4.95
2019-01-27T03:52:53.327Z,4.94
2019-01-27T03:55:29.569Z,4.91
2019-01-27T03:57:57.995Z,4.87
2019-01-27T04:00:26.477Z,4.90
2019-01-27T04:02:56.638Z,4.90
2019-01-27T04:05:25.083Z,4.95
2019-01-27T04:07:53.557Z,4.94
2019-01-27T04:10:24.367Z,4.90
2019-01-27T04:12:52.872Z,4.91
2019-01-27T04:15:21.459Z,4.86
2019-01-27T04:17:49.893Z,4.94
2019-01-27T04:20:22.538Z,4.88
2019-01-27T04:22:51.056Z,4.97
2019-01-27T04:25:19.784Z,4.99
2019-01-27T04:27:48.401Z,5.02
2019-01-27T04:30:21.117Z,4.99
2019-01-27T04:32:49.620Z,5.00
2019-01-27T04:35:18.106Z,4.98
2019-01-27T04:37:46.620Z,5.00
2019-01-27T04:40:17.896Z,4.99
2019-01-27T04:42:46.713Z,4.94
2019-01-27T04:45:18.570Z,4.99
2019-01-27T04:47:47.019Z,5.00
2019-01-27T04:50:15.551Z,4.97
2019-01-27T04:52:44.042Z,4.97
2019-01-27T04:55:15.210Z,4.88
2019-01-27T04:57:43.791Z,4.91
2019-01-27T05:00:26.713Z,4.89
2019-01-27T05:03:05.104Z,4.89
2019-01-27T05:05:33.544Z,4.87
2019-01-27T05:08:01.949Z,4.85
2019-01-27T05:10:30.376Z,4.89
2019-01-27T05:12:58.783Z,4.80
2019-01-27T05:15:28.835Z,4.81
2019-01-27T05:17:57.351Z,4.80
2019-01-27T05:20:25.776Z,4.80
2019-01-27T05:22:54.208Z,4.82
2019-01-27T05:25:22.698Z,4.78
2019-01-27T05:27:51.267Z,4.78
2019-01-27T05:30:24.184Z,4.76
2019-01-27T05:32:52.598Z,4.76
2019-01-27T05:35:21.184Z,4.72
2019-01-27T05:37:49.666Z,4.68
2019-01-27T05:40:24.128Z,4.68
2019-01-27T05:42:52.545Z,4.70
2019-01-27T05:45:24.463Z,4.68
2019-01-27T05:47:52.874Z,4.72
2019-01-27T05:50:21.617Z,4.74
2019-01-27T05:52:50.145Z,4.80
2019-01-27T05:55:20.470Z,4.80
2019-01-27T05:57:49.347Z,4.78
2019-01-27T06:00:22.335Z,4.76
2019-01-27T06:02:50.826Z,4.85
2019-01-27T06:05:19.236Z,4.88
2019-01-27T06:07:47.679Z,4.85
2019-01-27T06:10:16.821Z,4.84
2019-01-27T06:12:45.233Z,4.78
2019-01-27T06:15:18.987Z,4.78
2019-01-27T06:17:47.654Z,4.80
2019-01-27T06:20:17.216Z,4.80
2019-01-27T06:22:45.747Z,4.75
2019-01-27T06:25:19.525Z,4.76
2019-01-27T06:27:48.186Z,4.78
2019-01-27T06:30:27.327Z,4.78
2019-01-27T06:32:57.482Z,4.77
2019-01-27T06:35:25.934Z,4.68
2019-01-27T06:37:54.432Z,4.68
2019-01-27T06:40:22.861Z,4.64
2019-01-27T06:42:51.385Z,4.65
2019-01-27T06:45:19.785Z,4.59
2019-01-27T06:47:48.215Z,4.60
2019-01-27T06:50:18.136Z,4.60
2019-01-27T06:52:46.539Z,4.60
2019-01-27T06:55:20.145Z,4.70
2019-01-27T06:57:48.633Z,4.75
2019-01-27T07:00:26.554Z,4.80
2019-01-27T07:02:56.683Z,4.84
2019-01-27T07:05:32.298Z,4.84
2019-01-27T07:08:11.185Z,4.84
2019-01-27T07:10:41.347Z,4.85
2019-01-27T07:13:11.400Z,4.85
2019-01-27T07:15:44.423Z,4.93
2019-01-27T07:18:26.665Z,4.86
2019-01-27T07:20:59.475Z,4.86
2019-01-27T07:23:35.555Z,4.86
2019-01-27T07:26:11.108Z,4.85
2019-01-27T07:28:46.990Z,4.84
2019-01-27T07:31:17.034Z,4.94
2019-01-27T07:33:49.745Z,5.00
2019-01-27T07:36:38.033Z,5.05
2019-01-27T07:39:10.419Z,5.06
2019-01-27T07:41:43.474Z,5.11
2019-01-27T07:44:13.530Z,5.25
2019-01-27T07:46:49.551Z,5.28
2019-01-27T07:49:22.674Z,5.35
2019-01-27T07:51:52.739Z,5.32
2019-01-27T07:54:25.770Z,5.35
2019-01-27T07:56:58.924Z,5.32
2019-01-27T07:59:46.814Z,5.35
2019-01-27T08:02:20.042Z,5.40
2019-01-27T08:04:50.105Z,5.41
2019-01-27T08:07:38.465Z,5.37
2019-01-27T08:10:11.916Z,5.43
2019-01-27T08:12:47.761Z,5.44
2019-01-27T08:15:17.856Z,5.48
2019-01-27T08:17:50.985Z,5.47
2019-01-27T08:20:27.355Z,5.50
2019-01-27T08:22:57.583Z,5.48
2019-01-27T08:25:44.139Z,5.44
2019-01-27T08:28:14.294Z,5.49
2019-01-27T08:30:59.376Z,5.47
2019-01-27T08:33:38.031Z,5.45
2019-01-27T08:36:08.253Z,5.47
2019-01-27T08:38:38.412Z,5.51
2019-01-27T08:41:08.493Z,5.59
2019-01-27T08:43:44.317Z,5.56
2019-01-27T08:46:14.464Z,5.51
2019-01-27T08:48:44.299Z,5.53
2019-01-27T08:51:12.749Z,5.57
2019-01-27T08:53:41.213Z,5.59
2019-01-27T08:56:09.623Z,5.66
2019-01-27T08:58:38.030Z,5.70
2019-01-27T09:01:08.167Z,5.65
2019-01-27T09:03:50.129Z,5.70
2019-01-27T09:06:25.799Z,5.76
2019-01-27T09:08:58.588Z,5.85
2019-01-27T09:11:34.429Z,5.92
2019-01-27T09:14:16.402Z,6.00
2019-01-27T09:16:46.858Z,6.08
2019-01-27T09:19:20.083Z,6.25
2019-01-27T09:21:53.282Z,6.57
2019-01-27T09:24:23.860Z,6.76
2019-01-27T09:27:06.078Z,6.80
2019-01-27T09:29:36.609Z,6.84
2019-01-27T09:32:12.822Z,6.77
2019-01-27T09:34:46.050Z,6.87
2019-01-27T09:37:33.809Z,6.90
2019-01-27T09:40:09.389Z,6.89
2019-01-27T09:42:54.837Z,6.87
2019-01-27T09:45:27.706Z,6.83
2019-01-27T09:48:03.503Z,6.81
2019-01-27T09:50:45.000Z,6.75
2019-01-27T09:53:15.107Z,6.77
2019-01-27T09:56:03.005Z,7.53
2019-01-27T09:58:33.192Z,7.76
2019-01-27T10:01:06.071Z,7.68
2019-01-27T10:03:41.869Z,7.99
2019-01-27T10:06:14.642Z,8.18
2019-01-27T10:08:47.453Z,8.81
2019-01-27T10:11:17.490Z,8.85
2019-01-27T10:14:05.781Z,8.55
2019-01-27T10:16:35.871Z,8.90
2019-01-27T10:19:12.060Z,8.78
2019-01-27T10:21:42.127Z,8.60
2019-01-27T10:24:14.685Z,8.34
2019-01-27T10:26:53.552Z,8.11
2019-01-27T10:29:26.540Z,7.78
2019-01-27T10:31:56.646Z,7.82
2019-01-27T10:34:29.631Z,7.81
2019-01-27T10:37:12.093Z,7.81
2019-01-27T10:39:40.072Z,7.72
2019-01-27T10:42:10.164Z,7.67
2019-01-27T10:44:45.944Z,7.53
2019-01-27T10:47:31.968Z,7.52
2019-01-27T10:50:11.423Z,7.52
2019-01-27T10:52:45.125Z,7.51
2019-01-27T10:55:15.621Z,7.47
2019-01-27T10:58:02.013Z,7.45
2019-01-27T11:00:47.324Z,7.50
2019-01-27T11:03:26.469Z,7.55
2019-01-27T11:05:56.825Z,7.47
2019-01-27T11:08:26.888Z,7.52
2019-01-27T11:11:13.525Z,7.54
2019-01-27T11:14:01.469Z,7.64
2019-01-27T11:16:34.597Z,7.61
2019-01-27T11:19:04.836Z,7.69
2019-01-27T11:21:37.473Z,7.76
2019-01-27T11:24:22.665Z,7.76
2019-01-27T11:26:59.852Z,7.82
2019-01-27T11:29:30.731Z,7.77
2019-01-27T11:32:19.239Z,7.87
2019-01-27T11:34:52.065Z,8.04
2019-01-27T11:37:22.284Z,8.20
2019-01-27T11:40:04.765Z,8.50
2019-01-27T11:42:46.827Z,8.66
2019-01-27T11:45:33.366Z,8.92
2019-01-27T11:48:23.360Z,8.98
2019-01-27T11:50:53.726Z,8.74
2019-01-27T11:53:22.532Z,8.41
2019-01-27T11:55:51.274Z,8.27
2019-01-27T11:58:20.020Z,8.27
2019-01-27T12:00:49.952Z,8.32
2019-01-27T12:03:18.694Z,8.35
2019-01-27T12:05:47.210Z,8.39
2019-01-27T12:08:15.621Z,8.54
2019-01-27T12:10:45.419Z,8.57
2019-01-27T12:13:14.395Z,8.58
2019-01-27T12:15:43.053Z,8.74
2019-01-27T12:18:11.531Z,8.72
2019-01-27T12:20:40.007Z,8.63
2019-01-27T12:23:08.734Z,8.57
2019-01-27T12:25:37.275Z,8.58
2019-01-27T12:28:06.370Z,8.59
2019-01-27T12:30:35.175Z,8.67
2019-01-27T12:33:03.737Z,8.68
2019-01-27T12:35:32.374Z,8.64
2019-01-27T12:38:00.819Z,8.60
2019-01-27T12:40:29.472Z,8.57
2019-01-27T12:42:57.868Z,8.51
2019-01-27T12:45:26.390Z,8.44
2019-01-27T12:47:54.991Z,8.48
2019-01-27T12:50:23.583Z,8.47
2019-01-27T12:52:53.660Z,8.39
2019-01-27T12:55:22.091Z,8.59
2019-01-27T12:57:51.762Z,8.67
2019-01-27T13:00:26.610Z,8.82
2019-01-27T13:02:55.070Z,8.84
2019-01-27T13:05:23.516Z,8.89
2019-01-27T13:07:52.138Z,8.85
2019-01-27T13:10:21.228Z,8.76
2019-01-27T13:12:49.629Z,8.76
2019-01-27T13:15:20.953Z,8.56
2019-01-27T13:17:49.397Z,8.59
2019-01-27T13:20:17.941Z,8.53
2019-01-27T13:22:46.474Z,8.40
2019-01-27T13:25:17.320Z,8.42
2019-01-27T13:27:45.815Z,8.33
2019-01-27T13:30:20.013Z,8.37
2019-01-27T13:32:49.655Z,8.43
2019-01-27T13:35:18.798Z,8.42
2019-01-27T13:37:47.302Z,8.36
2019-01-27T13:40:18.212Z,8.30
2019-01-27T13:42:46.823Z,8.14
2019-01-27T13:45:32.009Z,8.08
2019-01-27T13:48:00.586Z,7.94
2019-01-27T13:50:29.216Z,7.96
2019-01-27T13:52:57.799Z,7.99
2019-01-27T13:55:29.089Z,7.99
2019-01-27T13:57:57.503Z,8.05
2019-01-27T14:00:28.915Z,8.02
2019-01-27T14:02:57.428Z,7.99
2019-01-27T14:05:26.869Z,7.97
2019-01-27T14:07:55.420Z,8.00
2019-01-27T14:10:29.294Z,7.96
2019-01-27T14:12:58.388Z,7.99
2019-01-27T14:15:29.605Z,7.95
2019-01-27T14:17:58.028Z,7.93
2019-01-27T14:20:28.046Z,7.81
2019-01-27T14:22:56.617Z,7.77
2019-01-27T14:25:28.520Z,7.77
2019-01-27T14:27:57.506Z,7.80
2019-01-27T14:30:31.807Z,7.78
2019-01-27T14:33:00.576Z,7.72
2019-01-27T14:35:28.998Z,7.75
2019-01-27T14:37:57.416Z,7.77
2019-01-27T14:40:28.077Z,7.72
2019-01-27T14:42:56.498Z,7.73
2019-01-27T14:45:31.307Z,7.62
2019-01-27T14:48:00.570Z,7.64
2019-01-27T14:50:31.755Z,7.53
2019-01-27T14:53:01.171Z,7.55
2019-01-27T14:55:29.733Z,7.43
2019-01-27T14:57:58.139Z,7.40
2019-01-27T15:00:41.553Z,7.38
2019-01-27T15:03:10.422Z,7.37
2019-01-27T15:05:39.030Z,7.29
2019-01-27T15:08:08.030Z,7.30
2019-01-27T15:10:37.178Z,7.32
2019-01-27T15:13:07.148Z,7.25
2019-01-27T15:15:35.625Z,7.26
2019-01-27T15:18:05.257Z,7.24
2019-01-27T15:20:39.630Z,7.19
2019-01-27T15:23:08.049Z,7.13
2019-01-27T15:25:36.446Z,7.12
2019-01-27T15:28:05.130Z,7.05
2019-01-27T15:30:35.566Z,7.04
2019-01-27T15:33:04.756Z,7.02
2019-01-27T15:35:33.295Z,6.99
2019-01-27T15:38:01.854Z,6.90
2019-01-27T15:40:30.273Z,6.85
2019-01-27T15:42:58.764Z,6.84
2019-01-27T15:45:29.541Z,6.82
2019-01-27T15:47:58.666Z,6.72
2019-01-27T15:50:35.967Z,6.72
2019-01-27T15:53:05.704Z,6.63
2019-01-27T15:55:35.856Z,6.53
2019-01-27T15:58:04.667Z,6.42
2019-01-27T16:00:33.489Z,6.33
2019-01-27T16:03:03.036Z,6.25
2019-01-27T16:05:31.482Z,6.19
2019-01-27T16:07:59.899Z,6.14
2019-01-27T16:10:29.181Z,6.15
2019-01-27T16:12:58.542Z,6.10
2019-01-27T16:15:29.135Z,5.96
2019-01-27T16:17:57.625Z,5.89
2019-01-27T16:20:26.511Z,5.90
2019-01-27T16:22:56.648Z,5.86
2019-01-27T16:25:25.112Z,5.88
2019-01-27T16:27:53.610Z,5.85
2019-01-27T16:30:44.549Z,5.78
2019-01-27T16:33:11.763Z,5.75
2019-01-27T16:35:40.187Z,5.78
2019-01-27T16:38:08.719Z,5.83
2019-01-27T16:40:39.677Z,5.80
2019-01-27T16:43:09.007Z,5.80
2019-01-27T16:45:37.715Z,5.81
2019-01-27T16:48:06.400Z,5.82
2019-01-27T16:50:34.967Z,5.82
2019-01-27T16:53:03.392Z,5.81
2019-01-27T16:55:31.855Z,5.89
2019-01-27T16:58:00.311Z,5.84
2019-01-27T17:00:31.002Z,5.79
2019-01-27T17:02:59.668Z,5.80
2019-01-27T17:05:28.349Z,5.80
2019-01-27T17:07:57.555Z,5.74
2019-01-27T17:10:28.658Z,5.78
2019-01-27T17:12:57.072Z,5.79
2019-01-27T17:15:25.856Z,5.76
2019-01-27T17:17:54.287Z,5.82
2019-01-27T17:20:26.318Z,5.82
2019-01-27T17:22:55.389Z,5.81
2019-01-27T17:25:23.954Z,5.83
2019-01-27T17:27:52.376Z,5.89
2019-01-27T17:30:28.679Z,5.89
2019-01-27T17:32:57.287Z,5.93
2019-01-27T17:35:26.760Z,5.95
2019-01-27T17:37:55.527Z,5.91
2019-01-27T17:40:24.083Z,5.94
2019-01-27T17:42:52.684Z,5.95
2019-01-27T17:45:26.777Z,5.96
2019-01-27T17:47:55.267Z,5.96
2019-01-27T17:50:25.217Z,5.93
2019-01-27T17:52:54.055Z,5.94
2019-01-27T17:55:45.385Z,5.97
2019-01-27T17:58:37.335Z,5.92
2019-01-27T18:01:19.979Z,5.90
2019-01-27T18:04:08.155Z,5.94
2019-01-27T18:06:50.504Z,5.92
2019-01-27T18:09:20.617Z,5.84
2019-01-27T18:11:50.664Z,5.86
2019-01-27T18:14:20.739Z,5.83
2019-01-27T18:16:49.193Z,5.85
2019-01-27T18:19:17.606Z,5.85
2019-01-27T18:21:46.059Z,5.88
2019-01-27T18:24:14.511Z,5.87
2019-01-27T18:26:42.927Z,5.93
2019-01-27T18:29:11.369Z,5.93
2019-01-27T18:31:39.780Z,5.92
2019-01-27T18:34:15.842Z,5.94
2019-01-27T18:36:44.378Z,5.95
2019-01-27T18:39:12.912Z,5.98
2019-01-27T18:41:41.501Z,5.97
2019-01-27T18:44:10.099Z,5.99
2019-01-27T18:46:38.561Z,5.94
2019-01-27T18:49:07.092Z,5.97
2019-01-27T18:51:37.689Z,5.88
2019-01-27T18:54:17.165Z,5.92
2019-01-27T18:56:47.252Z,5.94
2019-01-27T18:59:19.789Z,5.89
2019-01-27T19:01:49.889Z,5.89
2019-01-27T19:04:20.111Z,5.90
2019-01-27T19:06:53.280Z,5.89
2019-01-27T19:09:29.360Z,5.87
2019-01-27T19:12:07.901Z,5.88
2019-01-27T19:14:40.923Z,5.84
2019-01-27T19:17:27.045Z,5.89
2019-01-27T19:19:59.779Z,5.88
2019-01-27T19:22:46.154Z,5.85
2019-01-27T19:25:19.167Z,5.85
2019-01-27T19:28:02.268Z,5.83
2019-01-27T19:30:38.483Z,5.83
2019-01-27T19:33:08.609Z,5.84
2019-01-27T19:35:47.502Z,5.85
2019-01-27T19:38:20.385Z,5.84
2019-01-27T19:40:56.168Z,5.76
2019-01-27T19:43:35.031Z,5.72
2019-01-27T19:46:05.109Z,5.67
2019-01-27T19:48:35.207Z,5.59
2019-01-27T19:51:08.077Z,5.53
2019-01-27T19:53:41.070Z,5.56
2019-01-27T19:56:11.120Z,5.51
2019-01-27T19:58:41.954Z,5.45
2019-01-27T20:01:17.748Z,5.48
2019-01-27T20:04:05.846Z,5.48
2019-01-27T20:06:38.964Z,5.49
2019-01-27T20:09:19.311Z,5.52
2019-01-27T20:11:49.447Z,5.52
2019-01-27T20:14:19.588Z,5.52
2019-01-27T20:17:06.000Z,5.51
2019-01-27T20:19:39.104Z,5.49
2019-01-27T20:22:15.112Z,5.48
2019-01-27T20:24:57.041Z,5.46
2019-01-27T20:27:35.821Z,5.44
2019-01-27T20:30:14.559Z,5.43
2019-01-27T20:32:44.635Z,5.41
2019-01-27T20:35:14.729Z,5.36
2019-01-27T20:37:47.818Z,5.27
2019-01-27T20:40:23.339Z,5.23
2019-01-27T20:42:53.579Z,5.16
2019-01-27T20:45:38.526Z,5.12
2019-01-27T20:48:14.864Z,5.08
2019-01-27T20:50:47.622Z,5.09
2019-01-27T20:53:17.696Z,5.06
2019-01-27T20:56:02.675Z,4.94
2019-01-27T20:58:38.714Z,4.94
2019-01-27T21:01:10.229Z,4.88
2019-01-27T21:03:52.581Z,4.77
2019-01-27T21:06:38.721Z,4.73
2019-01-27T21:09:13.192Z,4.68
2019-01-27T21:11:45.764Z,4.60
2019-01-27T21:14:24.787Z,4.57
2019-01-27T21:17:04.048Z,4.53
2019-01-27T21:19:34.126Z,4.50
2019-01-27T21:22:02.556Z,4.41
2019-01-27T21:24:31.338Z,4.35
2019-01-27T21:26:59.901Z,4.36
2019-01-27T21:29:28.312Z,4.32
2019-01-27T21:31:56.824Z,4.34
2019-01-27T21:34:25.237Z,4.29
2019-01-27T21:36:53.708Z,4.26
2019-01-27T21:39:22.151Z,4.27
2019-01-27T21:41:50.626Z,4.27
2019-01-27T21:44:18.989Z,4.23
2019-01-27T21:46:47.431Z,4.15
2019-01-27T21:49:15.841Z,4.16
2019-01-27T21:51:44.299Z,4.17
2019-01-27T21:54:12.801Z,4.12
2019-01-27T21:56:41.239Z,4.13
2019-01-27T21:59:09.668Z,4.12
2019-01-27T22:01:38.097Z,4.14
2019-01-27T22:04:06.528Z,4.09
2019-01-27T22:06:34.962Z,4.06
2019-01-27T22:09:04.879Z,4.06
2019-01-27T22:11:33.305Z,4.04
2019-01-27T22:14:01.744Z,4.02
2019-01-27T22:16:30.173Z,3.99
2019-01-27T22:18:58.606Z,4.01
2019-01-27T22:21:27.027Z,3.90
2019-01-27T22:23:55.471Z,3.91
2019-01-27T22:26:23.905Z,3.94
2019-01-27T22:28:52.340Z,3.90
2019-01-27T22:31:20.783Z,3.84
2019-01-27T22:33:49.235Z,3.76
2019-01-27T22:36:17.660Z,3.77
2019-01-27T22:38:46.082Z,3.81
2019-01-27T22:41:14.518Z,3.77
2019-01-27T22:43:42.962Z,3.74
2019-01-27T22:46:11.513Z,3.76
2019-01-27T22:48:39.976Z,3.70
2019-01-27T22:51:08.470Z,3.70
2019-01-27T22:53:36.904Z,3.72
2019-01-27T22:56:05.479Z,3.71
2019-01-27T22:58:33.908Z,3.70
2019-01-27T23:01:04.227Z,3.66
2019-01-27T23:03:33.612Z,3.71
2019-01-27T23:06:02.015Z,3.66
2019-01-27T23:08:30.431Z,3.65
2019-01-27T23:10:58.885Z,3.71
2019-01-27T23:13:27.351Z,3.71
2019-01-27T23:15:55.858Z,3.69
2019-01-27T23:18:24.304Z,3.59
2019-01-27T23:20:52.736Z,3.60
2019-01-27T23:23:21.242Z,3.53
2019-01-27T23:25:50.488Z,3.46
2019-01-27T23:28:19.146Z,3.42
2019-01-27T23:30:47.561Z,3.38
2019-01-27T23:33:16.091Z,3.32
2019-01-27T23:35:44.547Z,3.37
2019-01-27T23:38:12.951Z,3.35
2019-01-27T23:40:41.372Z,3.40
2019-01-27T23:43:09.911Z,3.46
2019-01-27T23:45:38.315Z,3.49
2019-01-27T23:48:06.824Z,3.50
2019-01-27T23:50:35.257Z,3.50
2019-01-27T23:53:03.961Z,3.51
2019-01-27T23:55:32.414Z,3.48
2019-01-27T23:58:00.825Z,3.48
